createdAt,value
2017-08-07T00:00:53.432Z,102112.41
2017-08-07T00:03:21.295Z,102109.86
2017-08-07T00:05:49.101Z,102111.48
2017-08-07T00:08:16.910Z,102106.34
2017-08-07T00:10:44.668Z,102109.94
2017-08-07T00:13:12.479Z,102108.57
2017-08-07T00:15:40.340Z,102108.36
2017-08-07T00:18:08.144Z,102105.31
2017-08-07T00:20:35.900Z,102101.75
2017-08-07T00:23:03.722Z,102107.23
2017-08-07T00:25:31.582Z,102101.77
2017-08-07T00:27:59.388Z,102107.14
2017-08-07T00:30:27.273Z,102107.16
2017-08-07T00:32:55.087Z,102100.35
2017-08-07T00:35:22.944Z,102104.72
2017-08-07T00:37:50.810Z,102100.55
2017-08-07T00:40:18.673Z,102103.44
2017-08-07T00:42:46.482Z,102100.84
2017-08-07T00:45:14.308Z,102102.45
2017-08-07T00:47:42.179Z,102100.14
2017-08-07T00:50:09.896Z,102105.05
2017-08-07T00:52:37.785Z,102104.55
2017-08-07T00:55:05.612Z,102105.95
2017-08-07T00:57:33.447Z,102102.64
2017-08-07T01:00:01.293Z,102107.86
2017-08-07T01:02:29.134Z,102097.98
2017-08-07T01:04:56.949Z,102098.14
2017-08-07T01:07:24.808Z,102099.59
2017-08-07T01:09:52.529Z,102101.84
2017-08-07T01:12:20.391Z,102104.39
2017-08-07T01:14:48.191Z,102101.23
2017-08-07T01:17:16.072Z,102102.92
2017-08-07T01:19:43.873Z,102098.63
2017-08-07T01:22:11.715Z,102092.98
2017-08-07T01:24:39.572Z,102091.34
2017-08-07T01:27:07.407Z,102089.72
2017-08-07T01:29:35.264Z,102092.89
2017-08-07T01:32:03.085Z,102094.03
2017-08-07T01:34:30.952Z,102095.45
2017-08-07T01:36:58.766Z,102088.09
2017-08-07T01:39:26.641Z,102088.44
2017-08-07T01:41:54.517Z,102090.30
2017-08-07T01:44:22.382Z,102087.01
2017-08-07T01:46:50.228Z,102090.41
2017-08-07T01:49:18.098Z,102091.56
2017-08-07T01:51:45.910Z,102086.03
2017-08-07T01:54:13.789Z,102095.54
2017-08-07T01:56:41.583Z,102088.89
2017-08-07T01:59:09.478Z,102088.30
2017-08-07T02:01:37.344Z,102092.03
2017-08-07T02:04:05.214Z,102094.11
2017-08-07T02:06:33.068Z,102092.42
2017-08-07T02:09:00.792Z,102091.73
2017-08-07T02:11:28.672Z,102087.80
2017-08-07T02:13:56.480Z,102083.78
2017-08-07T02:16:24.346Z,102087.30
2017-08-07T02:18:52.164Z,102092.06
2017-08-07T02:21:20.016Z,102085.53
2017-08-07T02:23:47.830Z,102081.11
2017-08-07T02:26:15.709Z,102086.42
2017-08-07T02:28:43.516Z,102085.66
2017-08-07T02:31:11.267Z,102073.36
2017-08-07T02:33:39.123Z,102079.89
2017-08-07T02:36:06.939Z,102082.56
2017-08-07T02:38:34.824Z,102087.34
2017-08-07T02:41:02.641Z,102088.09
2017-08-07T02:43:30.492Z,102090.90
2017-08-07T02:45:58.301Z,102082.13
2017-08-07T02:48:26.159Z,102079.33
2017-08-07T02:50:53.963Z,102079.62
2017-08-07T02:53:21.828Z,102076.70
2017-08-07T02:55:49.620Z,102078.13
2017-08-07T02:58:17.431Z,102067.43
2017-08-07T03:00:45.349Z,102066.34
2017-08-07T03:03:13.154Z,102072.19
2017-08-07T03:05:41.017Z,102068.27
2017-08-07T03:08:08.846Z,102069.11
2017-08-07T03:10:36.713Z,102062.18
2017-08-07T03:13:04.533Z,102061.08
2017-08-07T03:15:32.407Z,102067.35
2017-08-07T03:18:00.213Z,102077.27
2017-08-07T03:20:28.097Z,102074.50
2017-08-07T03:22:55.892Z,102070.03
2017-08-07T03:25:23.741Z,102071.60
2017-08-07T03:27:51.506Z,102068.52
2017-08-07T03:30:19.353Z,102062.95
2017-08-07T03:32:47.157Z,102064.90
2017-08-07T03:35:14.999Z,102067.55
2017-08-07T03:37:42.812Z,102067.56
2017-08-07T03:40:10.613Z,102062.96
2017-08-07T03:42:38.456Z,102061.27
2017-08-07T03:45:06.273Z,102069.06
2017-08-07T03:47:34.224Z,102062.23
2017-08-07T03:50:02.040Z,102062.25
2017-08-07T03:52:29.996Z,102061.98
2017-08-07T03:54:57.842Z,102054.33
2017-08-07T03:57:25.784Z,102054.49
2017-08-07T03:59:53.700Z,102063.54
2017-08-07T04:02:21.665Z,102059.97
2017-08-07T04:04:49.484Z,102063.98
2017-08-07T04:07:17.433Z,102059.67
2017-08-07T04:09:45.282Z,102050.34
2017-08-07T04:12:13.156Z,102057.97
2017-08-07T04:14:40.964Z,102055.70
2017-08-07T04:17:08.764Z,102051.91
2017-08-07T04:19:36.613Z,102052.19
2017-08-07T04:22:04.434Z,102050.63
2017-08-07T04:24:32.313Z,102048.80
2017-08-07T04:27:00.129Z,102045.61
2017-08-07T04:29:27.892Z,102047.80
2017-08-07T04:31:55.717Z,102046.39
2017-08-07T04:34:23.569Z,102053.45
2017-08-07T04:36:51.396Z,102049.98
2017-08-07T04:39:19.250Z,102047.61
2017-08-07T04:41:47.035Z,102054.28
2017-08-07T04:44:14.899Z,102046.48
2017-08-07T04:46:42.733Z,102053.01
2017-08-07T04:49:10.591Z,102053.82
2017-08-07T04:51:38.408Z,102047.48
2017-08-07T04:54:06.229Z,102045.50
2017-08-07T04:56:34.073Z,102047.13
2017-08-07T04:59:01.898Z,102046.89
2017-08-07T05:01:29.801Z,102040.14
2017-08-07T05:03:57.624Z,102045.17
2017-08-07T05:06:25.526Z,102037.20
2017-08-07T05:08:53.364Z,102042.39
2017-08-07T05:11:21.214Z,102033.87
2017-08-07T05:13:49.950Z,102033.01
2017-08-07T05:16:17.814Z,102031.55
2017-08-07T05:18:45.625Z,102029.25
2017-08-07T05:21:13.402Z,102030.28
2017-08-07T05:23:41.208Z,102032.52
2017-08-07T05:26:09.008Z,102028.31
2017-08-07T05:28:36.891Z,102023.04
2017-08-07T05:31:04.730Z,102018.83
2017-08-07T05:33:36.092Z,102019.59
2017-08-07T05:36:03.934Z,102019.89
2017-08-07T05:38:31.802Z,102022.39
2017-08-07T05:40:59.518Z,102013.26
2017-08-07T05:43:27.374Z,102018.93
2017-08-07T05:45:55.194Z,102021.56
2017-08-07T05:48:23.073Z,102020.86
2017-08-07T05:50:50.891Z,102017.48
2017-08-07T05:53:18.704Z,102024.56
2017-08-07T05:55:46.599Z,102024.77
2017-08-07T05:58:14.423Z,102026.16
2017-08-07T06:00:42.308Z,102025.67
2017-08-07T06:03:10.144Z,102023.86
2017-08-07T06:05:38.031Z,102025.58
2017-08-07T06:08:05.835Z,102029.55
2017-08-07T06:10:33.737Z,102032.80
2017-08-07T06:13:01.593Z,102024.98
2017-08-07T06:15:29.480Z,102024.87
2017-08-07T06:17:57.305Z,102024.03
2017-08-07T06:20:25.151Z,102026.92
2017-08-07T06:22:52.978Z,102022.05
2017-08-07T06:25:20.859Z,102019.55
2017-08-07T06:27:48.696Z,102025.36
2017-08-07T06:30:16.522Z,102018.16
2017-08-07T06:32:44.389Z,102022.46
2017-08-07T06:35:12.171Z,102021.95
2017-08-07T06:37:39.932Z,102021.89
2017-08-07T06:40:13.065Z,102018.30
2017-08-07T06:42:40.818Z,102013.75
2017-08-07T06:45:08.548Z,102013.77
2017-08-07T06:47:36.328Z,102006.64
2017-08-07T06:50:04.065Z,102016.04
2017-08-07T06:52:31.839Z,102016.00
2017-08-07T06:54:59.547Z,102013.01
2017-08-07T06:57:27.324Z,102013.56
2017-08-07T06:59:55.056Z,102016.11
2017-08-07T07:02:22.773Z,102013.56
2017-08-07T07:04:50.545Z,102014.41
2017-08-07T07:07:18.291Z,102012.69
2017-08-07T07:09:46.076Z,102009.86
2017-08-07T07:12:13.781Z,102008.73
2017-08-07T07:14:41.600Z,102013.09
2017-08-07T07:17:09.345Z,102016.96
2017-08-07T07:19:37.108Z,102010.20
2017-08-07T07:22:04.825Z,102014.80
2017-08-07T07:24:32.611Z,102020.98
2017-08-07T07:27:00.331Z,102014.27
2017-08-07T07:29:28.104Z,102010.09
2017-08-07T07:31:55.846Z,102012.06
2017-08-07T07:34:23.633Z,102015.46
2017-08-07T07:36:51.375Z,102005.65
2017-08-07T07:39:19.177Z,102004.31
2017-08-07T07:41:46.965Z,102002.22
2017-08-07T07:44:14.694Z,101996.05
2017-08-07T07:46:42.468Z,101999.59
2017-08-07T07:49:10.184Z,102001.12
2017-08-07T07:51:37.962Z,101997.72
2017-08-07T07:54:05.704Z,101994.58
2017-08-07T07:56:33.486Z,101989.35
2017-08-07T07:59:01.256Z,101992.40
2017-08-07T08:01:29.047Z,101992.09
2017-08-07T08:03:56.828Z,101983.38
2017-08-07T08:06:24.595Z,101985.45
2017-08-07T08:08:52.717Z,101981.20
2017-08-07T08:11:20.497Z,101983.00
2017-08-07T08:13:48.273Z,101979.70
2017-08-07T08:16:15.993Z,101974.16
2017-08-07T08:18:43.922Z,101973.17
2017-08-07T08:21:11.674Z,101973.86
2017-08-07T08:23:39.582Z,101972.10
2017-08-07T08:26:07.461Z,101976.91
2017-08-07T08:28:35.236Z,101971.47
2017-08-07T08:31:03.064Z,101975.20
2017-08-07T08:33:30.883Z,101967.64
2017-08-07T08:35:58.744Z,101967.77
2017-08-07T08:38:26.672Z,101960.33
2017-08-07T08:40:54.512Z,101961.44
2017-08-07T08:43:22.432Z,101956.38
2017-08-07T08:45:50.237Z,101954.22
2017-08-07T08:48:18.110Z,101955.09
2017-08-07T08:50:45.924Z,101954.53
2017-08-07T08:53:13.697Z,101960.55
2017-08-07T08:55:41.582Z,101957.38
2017-08-07T08:58:09.408Z,101959.77
2017-08-07T09:00:37.224Z,101955.09
2017-08-07T09:03:05.049Z,101956.23
2017-08-07T09:05:32.964Z,101948.29
2017-08-07T09:08:00.789Z,101952.67
2017-08-07T09:10:28.689Z,101950.36
2017-08-07T09:12:56.529Z,101950.20
2017-08-07T09:15:24.408Z,101940.39
2017-08-07T09:17:52.219Z,101939.26
2017-08-07T09:20:21.051Z,101947.23
2017-08-07T09:22:48.895Z,101937.95
2017-08-07T09:25:16.614Z,101933.86
2017-08-07T09:27:44.491Z,101923.35
2017-08-07T09:30:12.338Z,101924.92
2017-08-07T09:32:40.180Z,101924.42
2017-08-07T09:35:08.024Z,101918.28
2017-08-07T09:37:35.895Z,101917.68
2017-08-07T09:40:03.791Z,101916.00
2017-08-07T09:42:31.683Z,101916.89
2017-08-07T09:44:59.510Z,101919.86
2017-08-07T09:47:27.356Z,101902.77
2017-08-07T09:49:55.169Z,101908.04
2017-08-07T09:52:23.059Z,101909.23
2017-08-07T09:54:50.883Z,101910.24
2017-08-07T09:57:18.717Z,101910.79
2017-08-07T09:59:46.612Z,101909.55
2017-08-07T10:02:14.452Z,101901.41
2017-08-07T10:04:42.311Z,101899.74
2017-08-07T10:07:10.120Z,101895.55
2017-08-07T10:09:37.981Z,101896.33
2017-08-07T10:12:05.716Z,101896.48
2017-08-07T10:14:33.576Z,101894.74
2017-08-07T10:17:01.376Z,101895.16
2017-08-07T10:19:29.100Z,101885.31
2017-08-07T10:21:56.884Z,101883.50
2017-08-07T10:24:24.632Z,101885.92
2017-08-07T10:26:52.537Z,101878.12
2017-08-07T10:29:20.388Z,101880.14
2017-08-07T10:31:48.305Z,101869.50
2017-08-07T10:34:16.130Z,101873.41
2017-08-07T10:36:43.996Z,101862.80
2017-08-07T10:39:11.835Z,101870.94
2017-08-07T10:41:39.731Z,101860.46
2017-08-07T10:44:07.457Z,101859.97
2017-08-07T10:46:35.331Z,101864.25
2017-08-07T10:49:03.207Z,101860.85
2017-08-07T10:51:31.080Z,101867.50
2017-08-07T10:53:58.864Z,101863.05
2017-08-07T10:56:26.702Z,101859.02
2017-08-07T10:58:54.574Z,101861.03
2017-08-07T11:01:22.330Z,101851.16
2017-08-07T11:03:50.204Z,101849.67
2017-08-07T11:06:18.016Z,101854.43
2017-08-07T11:08:45.898Z,101855.16
2017-08-07T11:11:13.724Z,101856.19
2017-08-07T11:13:41.614Z,101852.77
2017-08-07T11:16:09.450Z,101844.81
2017-08-07T11:18:37.342Z,101847.74
2017-08-07T11:21:05.177Z,101850.39
2017-08-07T11:23:33.018Z,101836.97
2017-08-07T11:26:00.876Z,101834.20
2017-08-07T11:28:28.744Z,101841.11
2017-08-07T11:30:56.621Z,101839.87
2017-08-07T11:33:24.480Z,101838.90
2017-08-07T11:35:52.355Z,101840.08
2017-08-07T11:38:20.054Z,101834.59
2017-08-07T11:40:47.835Z,101832.58
2017-08-07T11:43:15.576Z,101830.70
2017-08-07T11:45:43.362Z,101827.98
2017-08-07T11:48:11.093Z,101824.67
2017-08-07T11:50:38.845Z,101831.61
2017-08-07T11:53:06.556Z,101825.59
2017-08-07T11:55:34.337Z,101820.59
2017-08-07T11:58:02.073Z,101825.28
2017-08-07T12:00:29.791Z,101821.42
2017-08-07T12:02:57.567Z,101806.05
2017-08-07T12:05:25.281Z,101812.23
2017-08-07T12:07:53.043Z,101805.56
2017-08-07T12:10:20.787Z,101805.89
2017-08-07T12:12:48.560Z,101801.23
2017-08-07T12:15:16.292Z,101808.40
2017-08-07T12:17:44.074Z,101795.25
2017-08-07T12:20:11.797Z,101795.79
2017-08-07T12:22:39.555Z,101799.03
2017-08-07T12:25:07.264Z,101801.83
2017-08-07T12:27:35.050Z,101799.50
2017-08-07T12:30:02.816Z,101790.41
2017-08-07T12:32:30.544Z,101787.72
2017-08-07T12:34:58.312Z,101786.16
2017-08-07T12:37:26.017Z,101788.63
2017-08-07T12:39:53.816Z,101785.84
2017-08-07T12:42:21.568Z,101778.59
2017-08-07T12:44:49.337Z,101776.22
2017-08-07T12:47:17.067Z,101783.41
2017-08-07T12:49:44.836Z,101773.60
2017-08-07T12:52:12.555Z,101784.20
2017-08-07T12:54:40.308Z,101776.20
2017-08-07T12:57:08.049Z,101776.28
2017-08-07T12:59:35.869Z,101779.61
2017-08-07T13:02:03.599Z,101779.37
2017-08-07T13:04:31.357Z,101775.22
2017-08-07T13:06:59.109Z,101764.75
2017-08-07T13:09:26.883Z,101766.16
2017-08-07T13:11:54.657Z,101764.69
2017-08-07T13:14:22.418Z,101769.05
2017-08-07T13:16:50.185Z,101756.33
2017-08-07T13:19:18.272Z,101759.88
2017-08-07T13:21:46.032Z,101756.02
2017-08-07T13:24:13.773Z,101751.48
2017-08-07T13:26:41.532Z,101740.45
2017-08-07T13:29:09.266Z,101745.19
2017-08-07T13:31:37.018Z,101750.70
2017-08-07T13:34:04.738Z,101751.14
2017-08-07T13:36:32.459Z,101751.38
2017-08-07T13:39:00.239Z,101742.45
2017-08-07T13:41:27.963Z,101736.27
2017-08-07T13:43:55.754Z,101732.72
2017-08-07T13:46:23.503Z,101726.47
2017-08-07T13:48:51.426Z,101727.56
2017-08-07T13:51:19.260Z,101736.77
2017-08-07T13:53:47.045Z,101727.78
2017-08-07T13:56:14.763Z,101726.08
2017-08-07T13:58:42.579Z,101731.36
2017-08-07T14:01:10.506Z,101728.88
2017-08-07T14:03:38.265Z,101722.89
2017-08-07T14:06:06.069Z,101717.78
2017-08-07T14:08:33.799Z,101715.65
2017-08-07T14:11:01.580Z,101719.31
2017-08-07T14:13:29.339Z,101715.23
2017-08-07T14:15:57.115Z,101718.41
2017-08-07T14:18:25.025Z,101713.19
2017-08-07T14:20:52.798Z,101713.47
2017-08-07T14:23:20.551Z,101710.09
2017-08-07T14:25:48.331Z,101711.75
2017-08-07T14:28:16.281Z,101712.52
2017-08-07T14:30:44.184Z,101704.55
2017-08-07T14:33:11.929Z,101703.37
2017-08-07T14:35:39.672Z,101694.00
2017-08-07T14:38:07.689Z,101694.70
2017-08-07T14:40:35.580Z,101698.48
2017-08-07T14:43:03.472Z,101692.69
2017-08-07T14:45:31.234Z,101692.89
2017-08-07T14:47:59.103Z,101684.34
2017-08-07T14:50:26.920Z,101686.33
2017-08-07T14:52:54.805Z,101682.62
2017-08-07T14:55:22.620Z,101683.27
2017-08-07T14:57:50.499Z,101671.95
2017-08-07T15:00:18.439Z,101669.84
2017-08-07T15:02:46.405Z,101668.05
2017-08-07T15:05:14.256Z,101668.27
2017-08-07T15:07:42.151Z,101670.72
2017-08-07T15:10:09.937Z,101670.48
2017-08-07T15:12:37.815Z,101668.49
2017-08-07T15:15:05.740Z,101661.11
2017-08-07T15:17:33.519Z,101659.41
2017-08-07T15:20:01.406Z,101659.73
2017-08-07T15:22:29.254Z,101659.97
2017-08-07T15:24:57.181Z,101652.05
2017-08-07T15:27:25.035Z,101648.15
2017-08-07T15:29:53.016Z,101654.73
2017-08-07T15:32:20.914Z,101648.28
2017-08-07T15:34:48.874Z,101649.03
2017-08-07T15:37:16.788Z,101650.53
2017-08-07T15:39:44.658Z,101650.84
2017-08-07T15:42:12.430Z,101642.09
2017-08-07T15:44:40.253Z,101646.13
2017-08-07T15:47:08.025Z,101645.39
2017-08-07T15:49:35.790Z,101644.30
2017-08-07T15:52:03.776Z,101643.41
2017-08-07T15:54:31.517Z,101644.87
2017-08-07T15:56:59.289Z,101636.87
2017-08-07T15:59:27.203Z,101636.87
2017-08-07T16:01:55.002Z,101637.70
2017-08-07T16:04:22.938Z,101638.13
2017-08-07T16:06:50.709Z,101642.44
2017-08-07T16:09:18.707Z,101640.60
2017-08-07T16:11:46.581Z,101636.97
2017-08-07T16:14:14.576Z,101636.23
2017-08-07T16:16:42.510Z,101632.88
2017-08-07T16:19:10.527Z,101633.98
2017-08-07T16:21:38.470Z,101632.41
2017-08-07T16:24:06.428Z,101627.81
2017-08-07T16:26:34.351Z,101635.09
2017-08-07T16:29:02.368Z,101634.58
2017-08-07T16:31:30.442Z,101636.95
2017-08-07T16:33:58.503Z,101635.88
2017-08-07T16:36:26.659Z,101626.97
2017-08-07T16:38:54.697Z,101627.16
2017-08-07T16:41:22.724Z,101629.64
2017-08-07T16:43:50.565Z,101630.89
2017-08-07T16:46:18.590Z,101630.70
2017-08-07T16:48:46.569Z,101629.23
2017-08-07T16:51:14.722Z,101627.33
2017-08-07T16:53:42.713Z,101624.66
2017-08-07T16:56:10.597Z,101622.97
2017-08-07T16:58:38.775Z,101611.67
2017-08-07T17:01:06.921Z,101607.77
2017-08-07T17:03:34.951Z,101613.80
2017-08-07T17:06:02.900Z,101618.53
2017-08-07T17:08:30.755Z,101622.99
2017-08-07T17:10:58.598Z,101622.92
2017-08-07T17:13:33.695Z,101616.98
2017-08-07T17:16:01.413Z,101620.39
2017-08-07T17:18:29.205Z,101619.42
2017-08-07T17:20:56.960Z,101612.36
2017-08-07T17:23:24.739Z,101608.52
2017-08-07T17:25:52.449Z,101611.03
2017-08-07T17:28:20.237Z,101611.72
2017-08-07T17:30:47.969Z,101606.98
2017-08-07T17:33:15.696Z,101607.80
2017-08-07T17:35:43.608Z,101610.61
2017-08-07T17:38:11.458Z,101609.77
2017-08-07T17:40:39.360Z,101608.34
2017-08-07T17:43:07.261Z,101603.78
2017-08-07T17:45:35.187Z,101608.62
2017-08-07T17:48:03.040Z,101599.50
2017-08-07T17:50:30.948Z,101599.46
2017-08-07T17:52:58.822Z,101605.36
2017-08-07T17:55:26.756Z,101605.70
2017-08-07T17:57:54.634Z,101599.74
2017-08-07T18:00:22.606Z,101596.47
2017-08-07T18:02:50.470Z,101597.63
2017-08-07T18:05:18.395Z,101594.77
2017-08-07T18:07:46.380Z,101601.64
2017-08-07T18:10:14.380Z,101604.41
2017-08-07T18:12:42.326Z,101601.95
2017-08-07T18:15:10.228Z,101599.81
2017-08-07T18:17:38.332Z,101595.73
2017-08-07T18:20:06.244Z,101596.58
2017-08-07T18:22:34.326Z,101595.87
2017-08-07T18:25:02.373Z,101600.05
2017-08-07T18:27:30.410Z,101603.99
2017-08-07T18:29:58.427Z,101602.46
2017-08-07T18:32:26.567Z,101599.03
2017-08-07T18:34:54.632Z,101596.28
2017-08-07T18:37:22.692Z,101600.97
2017-08-07T18:39:50.693Z,101601.78
2017-08-07T18:42:18.603Z,101600.46
2017-08-07T18:44:46.650Z,101600.27
2017-08-07T18:47:14.653Z,101601.89
2017-08-07T18:49:42.700Z,101603.86
2017-08-07T18:52:10.700Z,101609.98
2017-08-07T18:54:38.733Z,101610.59
2017-08-07T18:57:06.693Z,101607.63
2017-08-07T18:59:34.693Z,101605.39
2017-08-07T19:02:02.572Z,101605.12
2017-08-07T19:04:30.615Z,101609.93
2017-08-07T19:06:58.490Z,101607.77
2017-08-07T19:09:26.471Z,101612.69
2017-08-07T19:11:54.296Z,101605.89
2017-08-07T19:14:22.056Z,101608.06
2017-08-07T19:16:49.860Z,101607.02
2017-08-07T19:19:17.631Z,101610.97
2017-08-07T19:21:45.412Z,101609.00
2017-08-07T19:24:13.144Z,101614.09
2017-08-07T19:26:41.039Z,101614.55
2017-08-07T19:29:08.915Z,101617.34
2017-08-07T19:31:36.910Z,101612.50
2017-08-07T19:34:04.632Z,101612.70
2017-08-07T19:36:32.532Z,101620.44
2017-08-07T19:39:00.444Z,101613.86
2017-08-07T19:41:28.341Z,101625.47
2017-08-07T19:43:56.366Z,101621.20
2017-08-07T19:46:24.169Z,101629.16
2017-08-07T19:48:51.952Z,101621.95
2017-08-07T19:51:19.697Z,101618.83
2017-08-07T19:53:47.500Z,101622.77
2017-08-07T19:56:15.307Z,101630.27
2017-08-07T19:58:43.107Z,101635.69
2017-08-07T20:01:10.845Z,101629.38
2017-08-07T20:03:38.631Z,101630.28
2017-08-07T20:06:06.376Z,101624.38
2017-08-07T20:08:34.342Z,101630.36
2017-08-07T20:11:02.091Z,101626.08
2017-08-07T20:13:29.831Z,101623.27
2017-08-07T20:15:57.666Z,101622.17
2017-08-07T20:18:25.474Z,101616.64
2017-08-07T20:20:53.288Z,101621.64
2017-08-07T20:23:21.253Z,101620.59
2017-08-07T20:25:49.067Z,101618.77
2017-08-07T20:28:16.868Z,101623.20
2017-08-07T20:30:44.664Z,101620.77
2017-08-07T20:33:13.455Z,101615.97
2017-08-07T20:35:41.164Z,101615.20
2017-08-07T20:38:08.946Z,101616.36
2017-08-07T20:40:36.662Z,101619.37
2017-08-07T20:43:04.584Z,101612.34
2017-08-07T20:45:32.538Z,101611.41
2017-08-07T20:48:00.465Z,101612.52
2017-08-07T20:50:28.209Z,101612.37
2017-08-07T20:52:56.010Z,101613.67
2017-08-07T20:55:23.949Z,101615.64
2017-08-07T20:57:51.764Z,101612.92
2017-08-07T21:00:19.912Z,101615.02
2017-08-07T21:02:47.726Z,101613.50
2017-08-07T21:05:15.475Z,101620.12
2017-08-07T21:07:43.258Z,101615.66
2017-08-07T21:10:13.619Z,101611.77
2017-08-07T21:12:41.593Z,101614.40
2017-08-07T21:15:09.425Z,101615.11
2017-08-07T21:17:37.203Z,101613.60
2017-08-07T21:20:04.976Z,101615.05
2017-08-07T21:22:32.781Z,101625.75
2017-08-07T21:25:00.580Z,101625.52
2017-08-07T21:27:28.360Z,101617.75
2017-08-07T21:29:56.147Z,101616.16
2017-08-07T21:32:23.895Z,101616.00
2017-08-07T21:34:51.650Z,101624.49
2017-08-07T21:37:19.569Z,101622.37
2017-08-07T21:39:47.359Z,101616.13
2017-08-07T21:42:15.123Z,101609.09
2017-08-07T21:44:42.922Z,101614.39
2017-08-07T21:47:10.778Z,101623.45
2017-08-07T21:49:38.687Z,101621.33
2017-08-07T21:52:06.617Z,101617.08
2017-08-07T21:54:34.464Z,101615.07
2017-08-07T21:57:02.402Z,101615.68
2017-08-07T21:59:30.318Z,101616.67
2017-08-07T22:01:58.140Z,101613.79
2017-08-07T22:04:26.051Z,101619.72
2017-08-07T22:06:53.967Z,101617.27
2017-08-07T22:09:21.825Z,101616.72
2017-08-07T22:11:49.936Z,101615.50
2017-08-07T22:14:17.801Z,101613.09
2017-08-07T22:16:45.897Z,101619.47
2017-08-07T22:19:13.815Z,101610.58
2017-08-07T22:21:41.865Z,101611.17
2017-08-07T22:24:10.002Z,101612.59
2017-08-07T22:26:38.016Z,101615.09
2017-08-07T22:29:06.077Z,101620.22
2017-08-07T22:31:34.062Z,101614.11
2017-08-07T22:34:01.883Z,101614.59
2017-08-07T22:36:29.782Z,101615.03
2017-08-07T22:38:57.765Z,101615.77
2017-08-07T22:41:25.677Z,101612.87
2017-08-07T22:43:53.650Z,101614.59
2017-08-07T22:46:21.548Z,101608.72
2017-08-07T22:48:49.440Z,101617.95
2017-08-07T22:51:17.256Z,101612.98
2017-08-07T22:53:45.184Z,101610.48
2017-08-07T22:56:13.131Z,101611.38
2017-08-07T22:58:41.054Z,101598.42
2017-08-07T23:01:09.088Z,101599.70
2017-08-07T23:03:36.917Z,101600.41
2017-08-07T23:06:04.881Z,101601.28
2017-08-07T23:08:32.816Z,101597.78
2017-08-07T23:11:00.723Z,101598.50
2017-08-07T23:13:28.574Z,101596.44
2017-08-07T23:15:56.511Z,101585.59
2017-08-07T23:18:24.345Z,101593.42
2017-08-07T23:20:52.311Z,101588.59
2017-08-07T23:23:20.248Z,101580.11
2017-08-07T23:25:48.165Z,101583.06
2017-08-07T23:28:16.037Z,101590.64
2017-08-07T23:30:43.815Z,101583.89
2017-08-07T23:33:11.571Z,101585.36
2017-08-07T23:35:39.536Z,101587.72
2017-08-07T23:38:07.470Z,101585.61
2017-08-07T23:40:35.348Z,101585.45
2017-08-07T23:43:03.293Z,101582.59
2017-08-07T23:45:31.132Z,101582.90
2017-08-07T23:47:59.086Z,101583.33
2017-08-07T23:50:26.988Z,101586.67
2017-08-07T23:52:54.938Z,101591.59
2017-08-07T23:55:22.888Z,101583.41
2017-08-07T23:57:50.797Z,101591.17
